Time;durP1;ratioP1;P1;durP2;ratioP2;P2;SDS_P1;SDS_P2;PMS_P1;PMS_P2;Temp;Humidity;BMP_temperature;BMP_pressure;BME280_temperature;BME280_humidity;BME280_pressure;Samples;Min_cycle;Max_cycle;Signal;HPM_P1;HPM_P2
2023/07/21 00:02:25;;;;;;;3.60;3.20;;;;;;;17.32;100.00;95916.16;5033498;27;101816;-62
2023/07/21 00:04:53;;;;;;;4.53;3.50;;;;;;;17.36;100.00;95911.78;5051811;27;102543;-62
2023/07/21 00:07:20;;;;;;;4.43;4.00;;;;;;;17.43;100.00;95909.53;5032605;27;105346;-62
2023/07/21 00:09:46;;;;;;;4.17;3.60;;;;;;;17.32;100.00;95916.16;5036846;27;102224;-63
2023/07/21 00:12:13;;;;;;;3.63;3.33;;;;;;;17.33;100.00;95917.78;5051155;27;102883;-62
2023/07/21 00:14:40;;;;;;;3.80;3.50;;;;;;;17.27;100.00;95914.41;5033365;27;102369;-62
2023/07/21 00:17:08;;;;;;;3.67;3.37;;;;;;;17.15;100.00;95906.09;5051715;27;102497;-62
2023/07/21 00:19:36;;;;;;;3.77;3.30;;;;;;;17.22;100.00;95903.00;5032527;27;105310;-62
2023/07/21 00:22:04;;;;;;;5.53;3.70;;;;;;;17.17;100.00;95892.34;5033238;27;102206;-62
2023/07/21 00:24:31;;;;;;;3.83;3.20;;;;;;;17.04;100.00;95888.59;5051394;27;102708;-61
2023/07/21 00:26:58;;;;;;;3.47;3.27;;;;;;;17.12;100.00;95884.41;5050966;27;102938;-61
2023/07/21 00:29:26;;;;;;;5.00;3.57;;;;;;;17.18;100.00;95880.50;5036456;27;102159;-61
2023/07/21 00:31:53;;;;;;;3.90;3.50;;;;;;;17.01;100.00;95883.03;5032544;27;105801;-61
2023/07/21 00:34:24;;;;;;;4.97;3.90;;;;;;;17.02;100.00;95885.44;5051421;27;101747;-61
2023/07/21 00:36:55;;;;;;;3.87;3.47;;;;;;;17.46;100.00;95898.16;5033109;27;105544;-61
2023/07/21 00:39:21;;;;;;;4.73;3.27;;;;;;;17.66;100.00;95894.97;5032397;27;105289;-61
2023/07/21 00:41:48;;;;;;;4.30;3.80;;;;;;;17.68;100.00;95887.38;5032955;27;102465;-61
2023/07/21 00:44:15;;;;;;;6.77;3.83;;;;;;;17.69;100.00;95878.22;5051050;27;101993;-61
2023/07/21 00:46:43;;;;;;;4.07;3.67;;;;;;;17.70;100.00;95885.16;5032361;27;105955;-61
2023/07/21 00:49:10;;;;;;;5.83;3.87;;;;;;;17.72;100.00;95888.38;5051201;27;102060;-61
2023/07/21 00:51:39;;;;;;;4.13;3.83;;;;;;;17.66;100.00;95882.31;5052602;27;105118;-61
2023/07/21 00:54:07;;;;;;;5.00;3.23;;;;;;;17.59;100.00;95879.25;5032584;27;101881;-61
2023/07/21 00:56:35;;;;;;;5.80;3.70;;;;;;;17.58;100.00;95885.75;5032714;27;105384;-60
2023/07/21 00:59:02;;;;;;;3.97;3.67;;;;;;;17.54;100.00;95886.69;5032072;27;105544;-61
2023/07/21 01:01:29;;;;;;;4.30;3.60;;;;;;;17.58;100.00;95876.88;5050844;27;102213;-61
2023/07/21 01:03:57;;;;;;;6.33;3.77;;;;;;;17.52;100.00;95886.16;5032601;27;106260;-61
2023/07/21 01:06:26;;;;;;;3.60;3.30;;;;;;;17.54;100.00;95881.31;5048475;27;105542;-61
2023/07/21 01:08:54;;;;;;;3.80;3.40;;;;;;;17.55;100.00;95890.94;5050657;27;101721;-61
2023/07/21 01:11:24;;;;;;;4.50;4.10;;;;;;;17.31;100.00;95877.78;5032550;27;105553;-61
2023/07/21 01:13:53;;;;;;;5.63;3.67;;;;;;;17.75;100.00;95874.28;5035097;27;105422;-61
2023/07/21 01:16:21;;;;;;;4.40;3.50;;;;;;;17.76;100.00;95860.53;5032566;27;105696;-61
2023/07/21 01:18:50;;;;;;;3.90;3.50;;;;;;;17.90;100.00;95847.00;5050018;27;103120;-60
2023/07/21 01:21:30;;;;;;;3.67;3.37;;;;;;;17.86;100.00;95836.09;5032380;27;101900;-60
2023/07/21 01:24:05;;;;;;;4.07;3.77;;;;;;;17.86;100.00;95830.69;5032247;27;104593;-60
2023/07/21 01:26:36;;;;;;;4.40;3.50;;;;;;;17.92;100.00;95834.06;5031509;27;105353;-61
2023/07/21 01:29:05;;;;;;;4.70;3.97;;;;;;;17.90;100.00;95837.06;5032282;27;102222;-61
2023/07/21 01:31:33;;;;;;;4.47;3.87;;;;;;;17.87;100.00;95831.50;5048175;27;105517;-61
2023/07/21 01:34:01;;;;;;;5.10;3.40;;;;;;;17.70;100.00;95837.56;5031489;27;105497;-61
2023/07/21 01:36:30;;;;;;;4.60;4.20;;;;;;;17.42;100.00;95844.19;5035592;27;102256;-61
2023/07/21 01:38:58;;;;;;;4.13;3.73;;;;;;;17.56;100.00;95842.22;5031497;27;105881;-60
2023/07/21 01:41:27;;;;;;;3.80;3.47;;;;;;;17.65;100.00;95840.38;5050287;27;101842;-61
2023/07/21 01:43:56;;;;;;;4.07;3.67;;;;;;;17.56;100.00;95836.06;5050064;27;102549;-61
2023/07/21 01:46:23;;;;;;;3.97;3.63;;;;;;;17.44;100.00;95839.31;5049674;27;102568;-61
2023/07/21 01:48:51;;;;;;;4.83;3.90;;;;;;;17.55;100.00;95854.09;5032016;27;102004;-61
2023/07/21 01:51:20;;;;;;;8.57;4.30;;;;;;;17.79;100.00;95857.25;5031879;27;105163;-61
2023/07/21 01:53:51;;;;;;;7.53;4.47;;;;;;;17.63;100.00;95853.34;5031076;27;105542;-61
2023/07/21 01:56:25;;;;;;;6.37;4.17;;;;;;;17.47;100.00;95843.28;5031806;27;101835;-61
2023/07/21 01:58:57;;;;;;;6.13;4.43;;;;;;;17.10;100.00;95847.09;5034728;27;105266;-61
2023/07/21 02:01:26;;;;;;;5.47;3.90;;;;;;;17.07;100.00;95844.22;5031839;27;101812;-61
2023/07/21 02:03:53;;;;;;;3.70;3.40;;;;;;;17.47;100.00;95854.03;5031821;27;105892;-60
2023/07/21 02:06:20;;;;;;;4.97;3.57;;;;;;;17.57;100.00;95851.09;5047378;27;105466;-60
2023/07/21 02:08:47;;;;;;;6.00;3.80;;;;;;;17.80;100.00;95858.03;5031740;27;101943;-60
2023/07/21 02:11:15;;;;;;;5.77;4.00;;;;;;;17.66;100.00;95860.03;5049461;27;101933;-60
2023/07/21 02:14:04;;;;;;;4.70;4.27;;;;;;;17.54;100.00;95865.16;5047933;27;105484;-60
2023/07/21 02:16:32;;;;;;;4.23;3.83;;;;;;;17.58;100.00;95863.44;5048614;27;102377;-60
2023/07/21 02:18:58;;;;;;;3.97;3.60;;;;;;;17.59;100.00;95867.69;5049754;27;102093;-60
2023/07/21 02:21:25;;;;;;;5.10;4.10;;;;;;;17.41;100.00;95866.00;5034520;27;105647;-60
2023/07/21 02:23:52;;;;;;;4.10;3.70;;;;;;;17.40;100.00;95872.50;5048483;27;105426;-60
2023/07/21 02:26:19;;;;;;;4.97;3.60;;;;;;;17.60;100.00;95872.78;5030652;27;105474;-60
2023/07/21 02:28:46;;;;;;;3.90;3.60;;;;;;;17.65;100.00;95866.50;5031598;27;101991;-60
2023/07/21 02:31:15;;;;;;;5.93;3.80;;;;;;;17.79;100.00;95851.88;5031463;27;105325;-61
2023/07/21 02:33:42;;;;;;;4.37;3.93;;;;;;;18.11;100.00;95858.81;5048982;27;102467;-60
2023/07/21 02:36:08;;;;;;;4.03;3.47;;;;;;;17.80;100.00;95858.03;5049607;27;101849;-61
2023/07/21 02:38:36;;;;;;;3.90;3.60;;;;;;;17.61;100.00;95854.75;5031651;27;105126;-61
2023/07/21 02:41:04;;;;;;;4.53;3.57;;;;;;;17.95;100.00;95853.06;5033994;27;104031;-61
2023/07/21 02:43:31;;;;;;;5.93;3.23;;;;;;;17.97;100.00;95836.59;5033768;27;105593;-61
2023/07/21 02:45:58;;;;;;;3.63;2.90;;;;;;;17.95;100.00;95820.78;5050959;27;105624;-60
2023/07/21 02:48:27;;;;;;;3.93;3.63;;;;;;;17.95;100.00;95811.91;5034806;27;102057;-60
2023/07/21 02:50:55;;;;;;;4.63;4.00;;;;;;;17.86;100.00;95811.06;5034575;27;104064;-60
2023/07/21 02:53:22;;;;;;;7.20;3.70;;;;;;;17.66;100.00;95822.38;5050785;27;105147;-60
2023/07/21 02:55:58;;;;;;;3.40;3.10;;;;;;;17.27;100.00;95831.09;5034680;27;102127;-60
2023/07/21 02:58:26;;;;;;;3.43;3.13;;;;;;;17.66;100.00;95819.69;5034506;27;105766;-61
2023/07/21 03:00:55;;;;;;;4.00;3.37;;;;;;;17.93;100.00;95804.13;5033846;27;105099;-61
2023/07/21 03:03:29;;;;;;;4.07;3.67;;;;;;;18.07;100.00;95786.00;5037959;27;101846;-61
2023/07/21 03:06:04;;;;;;;4.77;4.17;;;;;;;17.91;100.00;95775.97;5033294;27;105433;-61
2023/07/21 03:08:32;;;;;;;4.40;4.00;;;;;;;17.76;100.00;95769.09;5034363;27;101956;-61
2023/07/21 03:11:05;;;;;;;5.57;4.10;;;;;;;17.79;100.00;95759.63;5034593;27;105665;-61
2023/07/21 03:13:36;;;;;;;4.23;3.83;;;;;;;17.55;100.00;95778.81;5033840;27;105174;-61
2023/07/21 03:16:05;;;;;;;4.73;4.33;;;;;;;16.91;100.00;95794.63;5034267;27;102257;-61
2023/07/21 03:18:37;;;;;;;4.27;3.87;;;;;;;16.92;100.00;95810.44;5051253;27;104933;-61
2023/07/21 03:21:12;;;;;;;4.43;4.03;;;;;;;16.98;100.00;95797.69;5050628;27;105124;-61
2023/07/21 03:23:39;;;;;;;4.80;4.30;;;;;;;17.17;100.00;95801.00;5034100;27;101791;-61
2023/07/21 03:26:05;;;;;;;3.83;3.53;;;;;;;17.21;100.00;95799.28;5036699;27;105611;-61
2023/07/21 03:28:39;;;;;;;4.77;3.93;;;;;;;17.26;100.00;95809.91;5034087;27;102268;-60
2023/07/21 03:31:08;;;;;;;5.60;4.40;;;;;;;17.12;100.00;95801.13;5034118;27;105643;-60
2023/07/21 03:33:44;;;;;;;4.37;4.07;;;;;;;16.98;100.00;95795.81;5033476;27;105114;-61
2023/07/21 03:36:20;;;;;;;5.30;4.80;;;;;;;17.05;100.00;95798.06;5051027;27;101992;-61
2023/07/21 03:38:47;;;;;;;4.97;4.17;;;;;;;17.11;100.00;95792.25;5033971;27;105585;-61
2023/07/21 03:41:14;;;;;;;5.50;4.20;;;;;;;17.23;100.00;95797.09;5033201;27;105220;-61
2023/07/21 03:43:42;;;;;;;4.83;4.13;;;;;;;17.17;100.00;95795.63;5033923;27;102336;-61
2023/07/21 03:46:11;;;;;;;4.20;3.80;;;;;;;17.15;100.00;95798.59;5033779;27;104882;-61
2023/07/21 03:48:56;;;;;;;5.10;4.00;;;;;;;17.26;100.00;95809.91;5036860;27;105511;-61
2023/07/21 03:51:23;;;;;;;4.30;3.63;;;;;;;17.34;100.00;95818.00;5050446;27;105449;-61
2023/07/21 03:53:50;;;;;;;5.20;4.10;;;;;;;17.34;100.00;95817.25;5032499;27;105884;-61
2023/07/21 03:56:21;;;;;;;4.83;4.27;;;;;;;17.70;100.00;95817.94;5033624;27;101893;-61
2023/07/21 03:58:49;;;;;;;6.30;4.70;;;;;;;17.53;100.00;95809.78;5033435;27;103932;-60
2023/07/21 04:01:16;;;;;;;4.80;4.40;;;;;;;17.41;100.00;95806.88;5051285;27;102738;-60
2023/07/21 04:03:42;;;;;;;4.83;4.33;;;;;;;17.43;100.00;95800.09;5033611;27;101920;-61
2023/07/21 04:06:11;;;;;;;5.57;4.17;;;;;;;17.42;100.00;95811.13;5032642;27;105045;-60
2023/07/21 04:08:38;;;;;;;5.90;4.20;;;;;;;17.34;100.00;95828.00;5049791;27;105942;-60
2023/07/21 04:11:05;;;;;;;4.87;4.33;;;;;;;17.27;100.00;95823.03;5036648;27;101994;-60
2023/07/21 04:13:32;;;;;;;7.03;4.17;;;;;;;17.05;100.00;95830.31;5032805;27;105760;-60
2023/07/21 04:16:00;;;;;;;5.90;4.33;;;;;;;17.15;100.00;95836.22;5033346;27;101862;-61
2023/07/21 04:18:27;;;;;;;5.23;4.60;;;;;;;17.18;100.00;95829.44;5033358;27;105192;-60
2023/07/21 04:20:56;;;;;;;6.13;4.57;;;;;;;17.15;100.00;95828.16;5050972;27;102632;-59
2023/07/21 04:23:24;;;;;;;5.23;4.10;;;;;;;17.36;100.00;95829.28;5050033;27;102110;-59
2023/07/21 04:25:52;;;;;;;5.00;3.90;;;;;;;17.50;100.00;95821.94;5050153;27;105336;-59
2023/07/21 04:28:19;;;;;;;5.87;4.80;;;;;;;17.63;100.00;95817.59;5032570;27;105815;-59
2023/07/21 04:30:47;;;;;;;4.97;4.10;;;;;;;17.68;100.00;95812.91;5033137;27;101883;-60
2023/07/21 04:33:14;;;;;;;5.60;3.60;;;;;;;17.85;100.00;95812.16;5035855;27;105492;-60
2023/07/21 04:35:45;;;;;;;5.87;3.67;;;;;;;17.94;100.00;95818.41;5049916;27;101897;-60
2023/07/21 04:38:14;;;;;;;4.37;4.00;;;;;;;17.96;100.00;95811.59;5033093;27;105048;-60
2023/07/21 04:40:49;;;;;;;4.07;3.77;;;;;;;18.00;100.00;95804.50;5032322;27;105053;-60
2023/07/21 04:43:17;;;;;;;5.43;4.20;;;;;;;18.08;100.00;95809.13;5032935;27;102211;-60
2023/07/21 04:45:44;;;;;;;4.50;4.00;;;;;;;18.17;100.00;95799.19;5032844;27;105348;-60
2023/07/21 04:48:20;;;;;;;4.83;4.33;;;;;;;18.22;100.00;95798.25;5032332;27;104978;-60
2023/07/21 04:50:52;;;;;;;4.10;3.70;;;;;;;18.26;100.00;95801.91;5032757;27;102156;-60
2023/07/21 04:53:19;;;;;;;5.70;4.20;;;;;;;18.19;100.00;95793.47;5035650;27;104985;-60
2023/07/21 04:55:48;;;;;;;4.40;4.00;;;;;;;18.30;100.00;95803.63;5032782;27;101921;-60
2023/07/21 04:58:16;;;;;;;8.10;3.60;;;;;;;18.38;100.00;95799.41;5051106;27;102617;-60
2023/07/21 05:00:43;;;;;;;4.17;3.80;;;;;;;18.47;100.00;95800.25;5050452;27;103139;-60
2023/07/21 05:03:10;;;;;;;5.30;3.60;;;;;;;18.50;100.00;95797.72;5032560;27;101979;-60
2023/07/21 05:05:38;;;;;;;6.53;3.60;;;;;;;18.54;100.00;95798.66;5030870;27;104890;-60
2023/07/21 05:08:06;;;;;;;4.30;3.90;;;;;;;18.62;100.00;95789.00;5031691;27;105832;-60
2023/07/21 05:10:32;;;;;;;4.10;3.70;;;;;;;18.60;100.00;95792.03;5050807;27;102285;-60
2023/07/21 05:13:01;;;;;;;7.23;4.73;;;;;;;18.58;100.00;95796.16;5032486;27;105107;-60
2023/07/21 05:15:38;;;;;;;8.63;5.20;;;;;;;18.45;100.00;95789.78;5052511;27;105296;-60
2023/07/21 05:18:31;;;;;;;5.83;4.63;;;;;;;18.13;100.00;95798.22;5025319;27;102839;-60
2023/07/21 05:21:33;;;;;;;6.70;4.73;;;;;;;17.66;100.00;95800.84;4986885;28;103028;-60
2023/07/21 05:24:08;;;;;;;5.73;4.80;;;;;;;17.72;100.00;95807.69;5022601;27;102097;-60
2023/07/21 05:26:36;;;;;;;5.23;4.60;;;;;;;17.89;100.00;95805.88;5050385;27;102345;-60
2023/07/21 05:29:13;;;;;;;8.60;4.97;;;;;;;18.14;100.00;95804.41;5031642;27;104004;-60
2023/07/21 05:31:45;;;;;;;7.80;4.80;;;;;;;18.32;100.00;95801.44;5049093;27;101916;-60
2023/07/21 05:34:28;;;;;;;4.70;4.13;;;;;;;18.53;100.00;95793.59;5032069;27;105344;-60
2023/07/21 05:36:56;;;;;;;5.10;4.63;;;;;;;18.64;100.00;95797.56;5031469;27;105848;-60
2023/07/21 05:39:23;;;;;;;4.53;4.10;;;;;;;18.82;100.00;95801.88;5035602;27;102280;-60
2023/07/21 05:41:50;;;;;;;5.20;4.60;;;;;;;18.85;100.00;95799.31;5031437;27;106251;-60
2023/07/21 05:44:19;;;;;;;5.63;5.00;;;;;;;18.84;100.00;95807.72;5032013;27;101938;-60
2023/07/21 05:46:46;;;;;;;5.53;4.60;;;;;;;18.67;100.00;95802.31;5048802;27;105803;-60
2023/07/21 05:49:14;;;;;;;5.50;4.20;;;;;;;18.71;100.00;95805.97;5031124;27;105164;-60
2023/07/21 05:51:41;;;;;;;4.37;3.97;;;;;;;19.03;100.00;95803.59;5031987;27;102209;-60
2023/07/21 05:54:18;;;;;;;6.83;4.63;;;;;;;18.92;100.00;95799.63;5031837;27;104808;-60
2023/07/21 05:56:45;;;;;;;7.63;4.47;;;;;;;19.02;100.00;95793.16;5031334;27;105139;-61
2023/07/21 05:59:20;;;;;;;5.73;4.13;;;;;;;18.82;100.00;95799.97;5032019;27;101853;-61
2023/07/21 06:01:47;;;;;;;5.10;4.60;;;;;;;18.63;100.00;95802.16;5051481;27;105228;-61
2023/07/21 06:04:14;;;;;;;5.77;4.63;;;;;;;18.37;100.00;95804.00;5049994;27;101865;-61
2023/07/21 06:06:48;;;;;;;6.43;5.03;;;;;;;18.23;100.00;95810.59;5027734;28;105084;-61
2023/07/21 06:09:38;;;;;;;6.77;4.17;;;;;;;18.07;100.00;95817.50;5028522;28;103712;-60
2023/07/21 06:12:29;;;;;;;6.33;4.60;;;;;;;18.09;100.00;95823.38;5028353;28;101734;-61
2023/07/21 06:15:11;;;;;;;7.47;5.03;;;;;;;17.94;100.00;95826.47;5045352;27;105029;-61
2023/07/21 06:17:46;;;;;;;5.43;4.70;;;;;;;17.99;100.00;95832.50;5029074;27;105281;-60
2023/07/21 06:20:14;;;;;;;7.33;4.37;;;;;;;17.91;100.00;95832.44;5033174;28;101902;-61
2023/07/21 06:22:41;;;;;;;5.20;4.70;;;;;;;17.74;100.00;95832.38;5032249;28;105325;-61
2023/07/21 06:25:08;;;;;;;5.27;4.77;;;;;;;17.67;100.00;95840.09;5034519;28;105044;-61
2023/07/21 06:27:35;;;;;;;5.63;4.60;;;;;;;17.79;100.00;95843.00;5031742;28;104971;-61
2023/07/21 06:30:03;;;;;;;5.23;4.73;;;;;;;18.05;100.00;95833.16;5031045;28;105858;-61
2023/07/21 06:32:40;;;;;;;6.73;4.53;;;;;;;18.11;100.00;95821.16;5031447;28;101927;-61
2023/07/21 06:35:18;;;;;;;6.73;5.17;;;;;;;18.03;100.00;95803.88;5033306;28;102584;-61
2023/07/21 06:37:56;;;;;;;6.03;5.17;;;;;;;17.78;100.00;95796.50;5032470;28;103104;-61
2023/07/21 06:40:36;;;;;;;8.53;5.13;;;;;;;17.94;100.00;95725.00;5031728;28;101917;-61
2023/07/21 06:43:35;;;;;;;9.77;5.87;;;;;;;18.02;100.00;95718.06;5026209;27;102847;-61
2023/07/21 06:46:15;;;;;;;5.03;4.53;;;;;;;18.08;100.00;95746.41;5030652;28;105486;-61
2023/07/21 06:49:03;;;;;;;6.03;4.53;;;;;;;18.23;100.00;95748.69;5034991;28;102183;-61
2023/07/21 06:51:49;;;;;;;5.93;4.80;;;;;;;18.25;100.00;95784.16;5029333;28;101790;-61
2023/07/21 06:54:16;;;;;;;6.20;4.63;;;;;;;18.10;100.00;95787.28;5031333;28;102217;-61
2023/07/21 06:56:43;;;;;;;8.70;4.53;;;;;;;18.15;100.00;95771.78;5032695;28;102410;-61
2023/07/21 06:59:10;;;;;;;4.73;4.20;;;;;;;18.10;100.00;95766.53;5030626;28;105302;-61
2023/07/21 07:01:37;;;;;;;4.33;3.97;;;;;;;18.43;100.00;95740.03;5031049;28;101957;-61
2023/07/21 07:04:06;;;;;;;4.27;3.90;;;;;;;18.90;100.00;95747.19;5031279;28;105660;-61
2023/07/21 07:06:33;;;;;;;6.90;4.20;;;;;;;19.04;100.00;95748.63;5044238;27;102578;-61
2023/07/21 07:09:00;;;;;;;5.10;4.60;;;;;;;19.03;100.00;95765.09;5037776;27;101897;-61
2023/07/21 07:11:27;;;;;;;5.33;4.40;;;;;;;18.88;100.00;95760.19;5033661;27;105595;-61
2023/07/21 07:13:54;;;;;;;5.27;4.40;;;;;;;19.06;100.00;95756.38;5034351;27;101919;-61
2023/07/21 07:16:21;;;;;;;4.20;3.80;;;;;;;19.32;100.00;95759.84;5052474;27;102923;-61
2023/07/21 07:18:48;;;;;;;6.23;4.13;;;;;;;19.20;100.00;95757.00;5052003;27;102516;-61
2023/07/21 07:21:17;;;;;;;6.97;4.17;;;;;;;19.31;100.00;95753.69;5034365;27;102246;-61
2023/07/21 07:23:43;;;;;;;4.97;3.90;;;;;;;19.51;100.00;95765.69;5051201;27;105739;-61
2023/07/21 07:26:11;;;;;;;4.63;4.10;;;;;;;19.63;100.00;95758.50;5033541;27;105395;-61
2023/07/21 07:28:38;;;;;;;6.07;3.97;;;;;;;19.85;100.00;95746.69;5033305;27;102021;-61
2023/07/21 07:31:05;;;;;;;3.67;3.37;;;;;;;19.84;100.00;95745.13;5054881;27;102153;-61
2023/07/21 07:33:33;;;;;;;4.30;3.60;;;;;;;20.02;100.00;95736.63;5034272;27;101924;-61
2023/07/21 07:36:00;;;;;;;5.70;4.10;;;;;;;19.95;100.00;95738.25;5052243;27;102791;-61
2023/07/21 07:38:30;;;;;;;4.17;3.00;;;;;;;20.11;100.00;95729.28;5050388;27;105650;-61
2023/07/21 07:41:03;;;;;;;3.67;2.73;;;;;;;20.31;100.00;95728.53;5052181;27;101858;-61
2023/07/21 07:43:32;;;;;;;3.50;3.10;;;;;;;20.55;100.00;95723.28;5052088;27;103078;-61
2023/07/21 07:45:59;;;;;;;3.97;3.00;;;;;;;20.33;100.00;95733.63;5051388;27;102656;-58
2023/07/21 07:48:26;;;;;;;3.97;2.97;;;;;;;20.32;100.00;95732.03;5052150;27;101974;-59
2023/07/21 07:50:53;;;;;;;3.97;3.00;;;;;;;20.51;100.00;95724.28;5052256;27;103111;-58
2023/07/21 07:53:20;;;;;;;4.40;3.10;;;;;;;20.66;100.00;95726.41;5054845;27;102596;-59
2023/07/21 07:55:48;;;;;;;3.20;2.93;;;;;;;20.67;100.00;95739.59;5052040;27;102584;-59
2023/07/21 07:58:15;;;;;;;4.03;3.30;;;;;;;20.83;100.00;95731.66;5051207;27;102623;-58
2023/07/21 08:00:43;;;;;;;3.57;3.10;;;;;;;20.81;100.00;95728.50;5052059;27;102018;-58
2023/07/21 08:03:11;;;;;;;3.37;3.03;;;;;;;20.62;100.00;95739.78;5051885;27;103285;-59
2023/07/21 08:05:39;;;;;;;3.50;3.20;;;;;;;20.66;100.00;95723.69;5032424;27;105248;-59
2023/07/21 08:08:08;;;;;;;3.00;2.80;;;;;;;20.52;100.00;95734.75;5051806;27;102130;-58
2023/07/21 08:10:35;;;;;;;3.83;3.20;;;;;;;20.48;100.00;95743.84;5051601;27;102446;-58
2023/07/21 08:13:05;;;;;;;4.07;3.63;;;;;;;20.61;100.00;95745.50;5032567;27;105585;-59
2023/07/21 08:15:32;;;;;;;3.60;3.30;;;;;;;20.56;100.00;95753.78;5054999;27;101848;-59
2023/07/21 08:17:59;;;;;;;3.47;3.13;;;;;;;20.55;100.00;95752.22;5032710;27;106032;-58
2023/07/21 08:20:25;;;;;;;5.43;3.17;;;;;;;20.42;100.00;95756.75;5033242;27;102044;-58
2023/07/21 08:22:53;;;;;;;3.20;3.00;;;;;;;20.48;100.00;95765.47;5033232;27;105606;-59
2023/07/21 08:25:20;;;;;;;4.23;3.00;;;;;;;20.38;100.00;95772.00;5050966;27;102721;-58
2023/07/21 08:27:47;;;;;;;4.00;3.20;;;;;;;20.41;100.00;95765.97;5033006;27;101979;-59
2023/07/21 08:30:16;;;;;;;4.07;3.47;;;;;;;20.36;100.00;95773.44;5051477;27;102252;-58
2023/07/21 08:32:43;;;;;;;3.13;2.83;;;;;;;20.24;100.00;95776.06;5032496;27;105988;-59
2023/07/21 08:35:11;;;;;;;4.27;3.17;;;;;;;20.29;100.00;95778.59;5051334;27;101858;-58
2023/07/21 08:37:39;;;;;;;3.40;3.10;;;;;;;20.28;100.00;95785.09;5054212;27;102536;-59
2023/07/21 08:40:07;;;;;;;3.50;3.20;;;;;;;20.19;100.00;95789.75;5049593;27;101960;-58
2023/07/21 08:42:35;;;;;;;5.00;3.10;;;;;;;20.06;100.00;95809.63;5051273;27;102687;-58
2023/07/21 08:45:04;;;;;;;3.57;3.27;;;;;;;20.11;100.00;95818.38;5049228;27;105823;-58
2023/07/21 08:47:33;;;;;;;4.37;3.53;;;;;;;20.01;100.00;95834.88;5032772;27;101908;-58
2023/07/21 08:49:59;;;;;;;3.57;3.23;;;;;;;19.81;100.00;95851.78;5050988;27;102958;-59
2023/07/21 08:52:26;;;;;;;5.80;2.90;;;;;;;19.70;100.00;95882.09;5032176;27;105812;-58
2023/07/21 08:54:53;;;;;;;5.40;3.13;;;;;;;19.58;100.00;95903.56;5051049;27;101913;-59
2023/07/21 08:57:20;;;;;;;3.67;3.00;;;;;;;19.58;100.00;95914.34;5032653;27;105695;-59
2023/07/21 08:59:49;;;;;;;3.47;2.67;;;;;;;19.57;100.00;95924.31;5035297;27;101885;-59
2023/07/21 09:02:15;;;;;;;3.93;3.30;;;;;;;19.44;100.00;95941.47;5050898;27;102404;-59
2023/07/21 09:04:45;;;;;;;3.43;3.10;;;;;;;19.34;100.00;95938.28;5032006;27;105851;-58
2023/07/21 09:07:12;;;;;;;3.20;3.00;;;;;;;19.17;100.00;95940.91;5050189;27;102156;-58
2023/07/21 09:09:39;;;;;;;4.03;3.10;;;;;;;19.18;100.00;95945.22;5032746;27;105294;-58
2023/07/21 09:12:08;;;;;;;3.20;2.90;;;;;;;19.05;100.00;95952.31;5049947;27;102632;-59
2023/07/21 09:14:37;;;;;;;6.37;3.00;;;;;;;18.97;100.00;95971.16;5049212;27;101859;-59
2023/07/21 09:17:05;;;;;;;5.60;2.70;;;;;;;18.95;100.00;95976.06;5050708;27;102698;-59
2023/07/21 09:19:36;;;;;;;4.30;2.57;;;;;;;18.95;100.00;95966.09;5053564;27;102506;-59
2023/07/21 09:22:06;;;;;;;3.63;2.90;;;;;;;18.90;100.00;95968.13;5050995;27;102395;-59
2023/07/21 09:24:33;;;;;;;3.23;2.93;;;;;;;18.69;100.00;95967.13;5049851;27;103695;-59
2023/07/21 09:27:14;;;;;;;4.10;2.90;;;;;;;18.59;100.00;95962.78;5031955;27;102274;-59
2023/07/21 09:29:41;;;;;;;3.40;2.80;;;;;;;18.46;100.00;95949.41;5032166;27;105249;-58
2023/07/21 09:32:12;;;;;;;3.17;2.67;;;;;;;18.37;100.00;95944.00;5031486;27;105858;-59
2023/07/21 09:34:54;;;;;;;3.77;2.57;;;;;;;18.15;100.00;95924.41;5050557;27;101725;-59
2023/07/21 09:37:26;;;;;;;2.57;2.37;;;;;;;18.29;100.00;95914.31;5032235;27;105165;-59
2023/07/21 09:39:58;;;;;;;3.90;2.93;;;;;;;18.31;100.00;95880.59;5049630;27;102985;-59
2023/07/21 09:42:26;;;;;;;3.60;3.23;;;;;;;18.50;100.00;95856.16;5035649;27;102056;-59
2023/07/21 09:44:54;;;;;;;3.50;3.20;;;;;;;18.58;100.00;95852.69;5031426;27;105752;-59
2023/07/21 09:47:22;;;;;;;4.03;2.97;;;;;;;18.53;100.00;95839.38;5050165;27;102227;-58
2023/07/21 09:49:50;;;;;;;3.23;2.90;;;;;;;18.60;100.00;95829.75;5031849;27;105852;-59
2023/07/21 09:52:18;;;;;;;2.90;2.60;;;;;;;18.68;100.00;95833.53;5030519;27;105401;-59
2023/07/21 09:54:49;;;;;;;3.07;2.87;;;;;;;18.58;100.00;95852.69;5050117;27;101890;-59
2023/07/21 09:57:20;;;;;;;3.10;2.90;;;;;;;18.69;100.00;95857.47;5048810;27;105458;-59
2023/07/21 09:59:50;;;;;;;3.10;2.73;;;;;;;18.64;100.00;95856.84;5031239;27;105215;-59
2023/07/21 10:02:18;;;;;;;2.80;2.53;;;;;;;18.67;100.00;95861.56;5050261;27;101760;-59
2023/07/21 10:04:45;;;;;;;3.60;2.70;;;;;;;18.67;100.00;95869.66;5052865;27;102878;-59
2023/07/21 10:07:12;;;;;;;3.53;3.03;;;;;;;18.88;100.00;95876.03;5030994;27;101877;-59
2023/07/21 10:09:40;;;;;;;3.23;2.60;;;;;;;18.71;100.00;95884.09;5049916;27;102341;-59
2023/07/21 10:12:11;;;;;;;2.80;2.53;;;;;;;18.49;100.00;95881.50;5049272;27;103274;-59
2023/07/21 10:14:39;;;;;;;2.83;2.63;;;;;;;18.39;100.00;95896.03;5050056;27;101689;-59
2023/07/21 10:17:06;;;;;;;2.70;2.27;;;;;;;18.48;100.00;95906.84;5031648;27;105379;-59
2023/07/21 10:19:40;;;;;;;6.17;2.73;;;;;;;18.44;100.00;95916.63;5049192;27;102773;-59
2023/07/21 10:22:11;;;;;;;4.30;2.60;;;;;;;18.34;100.00;95912.31;5031546;27;101809;-59
2023/07/21 10:24:45;;;;;;;5.73;2.40;;;;;;;18.37;100.00;95916.28;5050079;27;102453;-59
2023/07/21 10:27:20;;;;;;;2.40;2.20;;;;;;;18.44;100.00;95916.63;5052823;27;102494;-59
2023/07/21 10:29:47;;;;;;;2.33;2.13;;;;;;;18.46;100.00;95899.06;5049875;27;102396;-59
2023/07/21 10:32:14;;;;;;;2.30;2.10;;;;;;;18.50;100.00;95905.41;5030672;27;105379;-59
2023/07/21 10:34:43;;;;;;;2.80;2.60;;;;;;;18.41;100.00;95893.00;5031329;27;102319;-59
2023/07/21 10:37:10;;;;;;;2.80;2.50;;;;;;;18.48;100.00;95878.00;5049599;27;102386;-59
2023/07/21 10:39:42;;;;;;;2.53;2.20;;;;;;;18.61;100.00;95881.69;5048966;27;102596;-59
2023/07/21 10:42:10;;;;;;;2.83;2.60;;;;;;;18.63;100.00;95882.97;5049732;27;101736;-59
2023/07/21 10:44:41;;;;;;;2.60;2.30;;;;;;;18.69;100.00;95875.53;5031307;27;105360;-59
2023/07/21 10:47:12;;;;;;;2.47;2.27;;;;;;;18.53;100.00;95871.69;5048961;27;103048;-59
2023/07/21 10:49:39;;;;;;;2.80;2.60;;;;;;;18.66;100.00;95876.16;5053151;27;101762;-59
2023/07/21 10:52:07;;;;;;;3.60;2.70;;;;;;;18.64;100.00;95867.59;5048795;27;103087;-59
2023/07/21 10:54:34;;;;;;;2.40;2.20;;;;;;;18.67;100.00;95861.56;5049643;27;102150;-59
2023/07/21 10:57:01;;;;;;;2.47;2.27;;;;;;;19.01;100.00;95861.66;5049426;27;102449;-59
2023/07/21 10:59:31;;;;;;;2.60;2.40;;;;;;;19.27;100.00;95851.69;5048720;27;102525;-59
2023/07/21 11:02:02;;;;;;;2.63;2.17;;;;;;;19.49;100.00;95848.81;5049426;27;101877;-59
2023/07/21 11:04:30;;;;;;;2.10;1.90;;;;;;;19.38;100.00;95842.16;5051996;27;101701;-59
2023/07/21 11:06:59;;;;;;;1.80;1.70;;;;;;;19.41;100.00;95846.94;5051695;27;102887;-59
2023/07/21 11:09:27;;;;;;;2.37;2.17;;;;;;;19.63;100.00;95842.13;5037683;27;101974;-59
2023/07/21 11:11:57;;;;;;;2.47;1.87;;;;;;;19.31;100.00;95841.84;5033760;27;105293;-59
2023/07/21 11:14:26;;;;;;;2.00;1.90;;;;;;;19.32;100.00;95846.13;5052509;27;101891;-59
2023/07/21 11:16:54;;;;;;;1.80;1.70;;;;;;;19.59;100.00;95848.47;5034233;27;105198;-59
2023/07/21 11:19:24;;;;;;;2.27;1.90;;;;;;;19.49;100.00;95846.91;5052015;27;102499;-59
2023/07/21 11:21:51;;;;;;;2.10;1.80;;;;;;;19.89;100.00;95845.56;5034160;27;101947;-59
2023/07/21 11:24:19;;;;;;;2.03;1.90;;;;;;;19.63;100.00;95834.03;5052511;27;103022;-59
2023/07/21 11:26:48;;;;;;;2.10;1.93;;;;;;;19.88;100.00;95837.78;5033678;27;105801;-59
2023/07/21 11:29:15;;;;;;;2.03;1.87;;;;;;;19.79;100.00;95845.13;5052340;27;101882;-59